Massey, Canada
Current Conditions -  °F | °C
As of 3:00 PM on Wednesday 26 Nov 2014 (Local Time) from CYZE Reporting Station
Overcast Overcast  
Wind Chill: 19°   Ceiling: 4000
Heat Index: 28°   Visibility: 9mi
Dew Point: 23°   Wind: 10mph
Humidity: 80%   Direction: 70°ENE
Pressure: 30.16"   Gusts: NA
Location:  46.21°N, 82.08°W
Report Text: CYZE 262000Z AUTO 07009KT 9SM OVC040 M02/M05 A3016 RMK ICG INTMT SLP222
Loading
Personal Weather Stations






























Interactive Weather Map New forecast layout! Learn more

10-Day Weather Forecast

Advertisements
Track Severe Weather on mobile